createdAt,value
2023-03-04T00:00:07.332Z,20.00
2023-03-04T00:02:38.235Z,21.23
2023-03-04T00:05:07.133Z,18.37
2023-03-04T00:07:35.447Z,25.77
2023-03-04T00:10:03.629Z,20.70
2023-03-04T00:12:32.242Z,16.57
2023-03-04T00:15:00.332Z,21.20
2023-03-04T00:17:31.630Z,19.83
2023-03-04T00:19:59.779Z,21.00
2023-03-04T00:22:27.841Z,19.67
2023-03-04T00:24:55.912Z,19.87
2023-03-04T00:27:24.329Z,18.43
2023-03-04T00:29:52.414Z,20.60
2023-03-04T00:32:20.591Z,22.33
2023-03-04T00:34:50.117Z,17.47
2023-03-04T00:37:18.201Z,16.47
2023-03-04T00:39:46.420Z,17.07
2023-03-04T00:42:14.819Z,17.20
2023-03-04T00:44:42.931Z,20.80
2023-03-04T00:47:11.050Z,17.33
2023-03-04T00:49:39.125Z,14.40
2023-03-04T00:52:08.760Z,14.00
2023-03-04T00:54:37.105Z,14.33
2023-03-04T00:57:05.209Z,17.07
2023-03-04T00:59:33.433Z,15.93
2023-03-04T01:02:01.583Z,17.57
2023-03-04T01:04:31.350Z,15.97
2023-03-04T01:07:01.315Z,27.77
2023-03-04T01:09:31.912Z,17.80
2023-03-04T01:11:59.945Z,14.97
2023-03-04T01:14:28.134Z,16.87
2023-03-04T01:16:56.337Z,20.37
2023-03-04T01:19:24.576Z,15.53
2023-03-04T01:21:53.845Z,12.67
2023-03-04T01:24:23.281Z,14.93
2023-03-04T01:26:52.739Z,19.70
2023-03-04T01:29:22.836Z,13.63
2023-03-04T01:31:50.912Z,16.93
2023-03-04T01:34:21.816Z,14.27
2023-03-04T01:36:49.920Z,13.50
2023-03-04T01:39:19.982Z,16.67
2023-03-04T01:41:48.185Z,13.07
2023-03-04T01:44:17.718Z,15.50
2023-03-04T01:46:49.323Z,13.77
2023-03-04T01:49:17.924Z,19.60
2023-03-04T01:51:49.162Z,13.43
2023-03-04T01:54:17.324Z,14.80
2023-03-04T01:56:46.033Z,17.77
2023-03-04T01:59:15.131Z,24.00
2023-03-04T02:01:46.338Z,12.60
2023-03-04T02:04:14.482Z,12.30
2023-03-04T02:06:42.544Z,12.73
2023-03-04T02:09:10.808Z,12.83
2023-03-04T02:11:39.181Z,11.80
2023-03-04T02:14:07.372Z,13.83
2023-03-04T02:16:35.796Z,12.70
2023-03-04T02:19:05.808Z,13.20
2023-03-04T02:21:34.333Z,13.83
2023-03-04T02:24:07.237Z,14.77
2023-03-04T02:26:36.700Z,14.90
2023-03-04T02:29:05.100Z,15.23
2023-03-04T02:31:35.171Z,16.60
2023-03-04T02:34:04.632Z,18.20
2023-03-04T02:36:32.700Z,14.67
2023-03-04T02:39:03.570Z,15.87
2023-03-04T02:41:32.426Z,17.73
2023-03-04T02:44:02.863Z,20.60
2023-03-04T02:46:31.116Z,17.67
2023-03-04T02:48:59.180Z,20.57
2023-03-04T02:51:27.406Z,17.40
2023-03-04T02:53:55.491Z,17.63
2023-03-04T02:56:24.850Z,16.03
2023-03-04T02:58:52.940Z,17.70
2023-03-04T03:01:22.618Z,19.07
2023-03-04T03:03:50.813Z,19.30
2023-03-04T03:06:19.101Z,19.73
2023-03-04T03:08:47.616Z,21.20
2023-03-04T03:11:15.992Z,22.17
2023-03-04T03:13:44.056Z,21.77
2023-03-04T03:16:12.245Z,26.00
2023-03-04T03:18:41.839Z,17.77
2023-03-04T03:21:10.426Z,20.23
2023-03-04T03:23:38.829Z,20.93
2023-03-04T03:26:08.195Z,21.33
2023-03-04T03:28:36.271Z,22.77
2023-03-04T03:31:04.560Z,23.20
2023-03-04T03:33:32.638Z,23.00
2023-03-04T03:36:02.581Z,25.47
2023-03-04T03:38:30.682Z,22.50
2023-03-04T03:40:58.649Z,22.97
2023-03-04T03:43:26.806Z,24.50
2023-03-04T03:45:54.935Z,25.93
2023-03-04T03:48:23.405Z,21.63
2023-03-04T03:50:51.482Z,24.13
2023-03-04T03:53:21.155Z,20.73
2023-03-04T03:55:49.215Z,24.03
2023-03-04T03:58:17.236Z,25.90
2023-03-04T04:00:45.556Z,23.70
2023-03-04T04:03:14.316Z,22.80
2023-03-04T04:05:42.388Z,22.60
2023-03-04T04:08:12.782Z,23.17
2023-03-04T04:10:42.212Z,26.43
2023-03-04T04:13:10.238Z,25.20
2023-03-04T04:15:38.961Z,23.23
2023-03-04T04:18:07.093Z,26.07
2023-03-04T04:20:35.154Z,26.00
2023-03-04T04:23:03.227Z,24.40
2023-03-04T04:25:31.299Z,23.23
2023-03-04T04:28:00.925Z,27.47
2023-03-04T04:30:29.253Z,27.00
2023-03-04T04:32:57.326Z,26.23
2023-03-04T04:35:25.430Z,27.77
2023-03-04T04:37:53.511Z,24.53
2023-03-04T04:40:21.712Z,28.87
2023-03-04T04:42:49.985Z,27.13
2023-03-04T04:45:19.835Z,24.63
2023-03-04T04:47:47.977Z,27.57
2023-03-04T04:50:16.041Z,27.43
2023-03-04T04:52:44.087Z,26.90
2023-03-04T04:55:12.252Z,27.07
2023-03-04T04:57:40.590Z,25.80
2023-03-04T05:00:11.018Z,23.60
2023-03-04T05:02:40.445Z,30.93
2023-03-04T05:05:09.035Z,26.17
2023-03-04T05:07:37.064Z,23.97
2023-03-04T05:10:06.091Z,26.80
2023-03-04T05:12:34.154Z,27.37
2023-03-04T05:15:02.298Z,24.70
2023-03-04T05:17:30.320Z,25.40
2023-03-04T05:19:59.789Z,24.77
2023-03-04T05:22:27.832Z,31.60
2023-03-04T05:24:57.309Z,26.70
2023-03-04T05:27:25.457Z,24.23
2023-03-04T05:29:55.570Z,24.50
2023-03-04T05:32:23.682Z,23.07
2023-03-04T05:34:51.737Z,23.07
2023-03-04T05:37:21.486Z,27.27
2023-03-04T05:39:49.549Z,24.80
2023-03-04T05:42:17.628Z,25.70
2023-03-04T05:44:46.191Z,27.33
2023-03-04T05:47:14.168Z,28.30
2023-03-04T05:49:42.694Z,26.03
2023-03-04T05:52:11.273Z,29.57
2023-03-04T05:54:40.736Z,23.50
2023-03-04T05:57:08.833Z,22.60
2023-03-04T05:59:36.921Z,28.53
2023-03-04T06:02:05.024Z,27.43
2023-03-04T06:04:33.495Z,26.03
2023-03-04T06:07:01.541Z,25.77
2023-03-04T06:09:29.557Z,27.07
2023-03-04T06:11:59.003Z,25.20
2023-03-04T06:14:27.129Z,26.97
2023-03-04T06:16:55.468Z,28.73
2023-03-04T06:19:23.547Z,28.00
2023-03-04T06:21:51.568Z,29.20
2023-03-04T06:24:19.864Z,25.33
2023-03-04T06:26:47.962Z,25.90
2023-03-04T06:29:17.401Z,30.07
2023-03-04T06:31:45.749Z,24.67
2023-03-04T06:34:13.839Z,26.40
2023-03-04T06:36:41.886Z,32.37
2023-03-04T06:39:09.942Z,25.97
2023-03-04T06:41:38.005Z,25.80
2023-03-04T06:44:06.635Z,24.30
2023-03-04T06:46:36.375Z,24.13
2023-03-04T06:49:04.550Z,28.13
2023-03-04T06:51:32.568Z,27.23
2023-03-04T06:54:00.720Z,25.23
2023-03-04T06:56:28.805Z,28.20
2023-03-04T06:58:57.181Z,27.20
2023-03-04T07:01:26.180Z,27.07
2023-03-04T07:03:55.971Z,26.97
2023-03-04T07:06:24.930Z,24.90
2023-03-04T07:08:53.096Z,32.77
2023-03-04T07:11:22.097Z,24.33
2023-03-04T07:13:50.302Z,22.10
2023-03-04T07:16:20.092Z,24.47
2023-03-04T07:18:48.269Z,22.77
2023-03-04T07:21:17.895Z,27.13
2023-03-04T07:23:45.949Z,26.60
2023-03-04T07:26:14.363Z,22.03
2023-03-04T07:28:42.883Z,23.40
2023-03-04T07:31:12.683Z,25.63
2023-03-04T07:33:40.737Z,27.73
2023-03-04T07:36:08.956Z,23.10
2023-03-04T07:38:38.708Z,24.57
2023-03-04T07:41:06.799Z,30.13
2023-03-04T07:43:34.882Z,26.17
2023-03-04T07:46:03.078Z,26.27
2023-03-04T07:48:31.229Z,22.90
2023-03-04T07:51:09.672Z,19.47
2023-03-04T07:53:39.473Z,27.13
2023-03-04T07:56:08.520Z,18.70
2023-03-04T07:58:36.535Z,21.27
2023-03-04T08:01:10.586Z,29.13
2023-03-04T08:03:38.670Z,19.20
2023-03-04T08:06:07.758Z,23.70
2023-03-04T08:08:35.809Z,25.93
2023-03-04T08:11:06.973Z,18.40
2023-03-04T08:13:35.021Z,20.67
2023-03-04T08:16:03.220Z,25.60
2023-03-04T08:18:31.725Z,23.37
2023-03-04T08:20:59.816Z,19.77
2023-03-04T08:23:27.947Z,22.57
2023-03-04T08:25:56.008Z,20.57
2023-03-04T08:28:25.452Z,20.30
2023-03-04T08:30:56.814Z,23.00
2023-03-04T08:33:25.230Z,27.40
2023-03-04T08:35:54.122Z,21.30
2023-03-04T08:38:22.208Z,22.93
2023-03-04T08:40:54.039Z,25.90
2023-03-04T08:43:22.113Z,20.67
2023-03-04T08:45:51.919Z,20.63
2023-03-04T08:48:19.974Z,18.70
2023-03-04T08:50:48.248Z,13.97
2023-03-04T08:53:16.853Z,18.37
2023-03-04T08:55:44.985Z,18.47
2023-03-04T08:58:13.472Z,22.60
2023-03-04T09:00:43.980Z,19.47
2023-03-04T09:03:13.636Z,20.60
2023-03-04T09:05:41.822Z,12.07
2023-03-04T09:08:09.866Z,16.07
2023-03-04T09:10:37.919Z,21.40
2023-03-04T09:13:06.389Z,22.27
2023-03-04T09:15:35.624Z,24.20
2023-03-04T09:18:04.085Z,20.40
2023-03-04T09:20:33.519Z,15.30
2023-03-04T09:23:01.601Z,18.80
2023-03-04T09:25:29.693Z,17.67
2023-03-04T09:27:58.064Z,19.50
2023-03-04T09:30:28.028Z,17.87
2023-03-04T09:32:57.468Z,12.73
2023-03-04T09:35:25.636Z,19.67
2023-03-04T09:37:55.122Z,16.43
2023-03-04T09:40:24.439Z,20.57
2023-03-04T09:42:54.133Z,20.17
2023-03-04T09:45:23.277Z,18.40
2023-03-04T09:47:52.292Z,18.17
2023-03-04T09:50:20.404Z,17.83
2023-03-04T09:52:58.505Z,19.00
2023-03-04T09:55:30.266Z,16.70
2023-03-04T09:58:00.318Z,17.80
2023-03-04T10:00:33.970Z,18.50
2023-03-04T10:03:18.021Z,21.67
2023-03-04T10:05:51.228Z,14.33
2023-03-04T10:08:32.408Z,20.93
2023-03-04T10:11:02.112Z,13.23
2023-03-04T10:13:33.367Z,22.60
2023-03-04T10:16:01.487Z,16.67
2023-03-04T10:18:32.039Z,16.50
2023-03-04T10:21:02.049Z,19.57
2023-03-04T10:23:32.666Z,13.80
2023-03-04T10:26:00.877Z,13.07
2023-03-04T10:28:30.866Z,17.50
2023-03-04T10:31:00.735Z,12.97
2023-03-04T10:33:30.589Z,15.80
2023-03-04T10:36:02.553Z,10.87
2023-03-04T10:38:33.628Z,11.77
2023-03-04T10:41:01.850Z,14.07
2023-03-04T10:43:30.017Z,12.53
2023-03-04T10:45:58.813Z,13.13
2023-03-04T10:48:28.580Z,12.10
2023-03-04T10:50:56.835Z,12.63
2023-03-04T10:53:29.717Z,11.10
2023-03-04T10:55:59.190Z,11.17
2023-03-04T10:58:27.279Z,10.20
2023-03-04T11:01:03.809Z,13.77
2023-03-04T11:03:33.418Z,13.00
2023-03-04T11:06:06.745Z,14.93
2023-03-04T11:08:34.854Z,19.03
2023-03-04T11:11:04.382Z,12.30
2023-03-04T11:13:32.482Z,9.33
2023-03-04T11:16:02.190Z,12.93
2023-03-04T11:18:42.048Z,13.63
2023-03-04T11:21:10.478Z,9.23
2023-03-04T11:23:42.156Z,10.60
2023-03-04T11:26:13.949Z,15.40
2023-03-04T11:28:43.886Z,12.27
2023-03-04T11:31:15.790Z,12.07
2023-03-04T11:33:45.665Z,10.17
2023-03-04T11:36:30.222Z,10.63
2023-03-04T11:38:58.282Z,7.13
2023-03-04T11:41:32.160Z,9.80
2023-03-04T11:44:00.527Z,7.70
2023-03-04T11:46:55.420Z,9.10
2023-03-04T11:49:50.326Z,7.40
2023-03-04T11:52:22.413Z,6.93
2023-03-04T11:54:58.016Z,7.33
2023-03-04T11:57:32.477Z,10.60
2023-03-04T12:00:05.654Z,5.53
2023-03-04T12:02:42.106Z,6.23
2023-03-04T12:05:20.978Z,7.40
2023-03-04T12:08:27.885Z,9.17
2023-03-04T12:11:02.041Z,6.47
2023-03-04T12:13:48.262Z,7.60
2023-03-04T12:16:35.510Z,7.30
2023-03-04T12:19:12.356Z,7.27
2023-03-04T12:21:52.285Z,5.83
2023-03-04T12:24:39.741Z,6.30
2023-03-04T12:27:11.627Z,6.00
2023-03-04T12:29:43.131Z,4.27
2023-03-04T12:32:14.476Z,10.67
2023-03-04T12:35:02.524Z,9.37
2023-03-04T12:37:40.325Z,5.87
2023-03-04T12:40:18.459Z,9.03
2023-03-04T12:42:55.511Z,9.43
2023-03-04T12:45:26.628Z,6.13
2023-03-04T12:48:00.615Z,9.63
2023-03-04T12:50:38.836Z,12.23
2023-03-04T12:53:17.455Z,8.73
2023-03-04T12:55:46.652Z,7.57
2023-03-04T12:58:17.598Z,6.57
2023-03-04T13:00:51.890Z,12.07
2023-03-04T13:03:22.556Z,7.57
2023-03-04T13:06:00.749Z,10.77
2023-03-04T13:08:33.603Z,6.60
2023-03-04T13:11:03.580Z,5.40
2023-03-04T13:13:39.921Z,9.07
2023-03-04T13:16:30.159Z,7.23
2023-03-04T13:18:58.747Z,11.23
2023-03-04T13:21:28.148Z,6.80
2023-03-04T13:23:56.755Z,7.57
2023-03-04T13:26:29.342Z,6.77
2023-03-04T13:29:34.298Z,13.87
2023-03-04T13:32:05.414Z,7.73
2023-03-04T13:34:50.644Z,7.27
2023-03-04T13:37:33.411Z,6.83
2023-03-04T13:40:33.714Z,6.33
2023-03-04T13:43:26.563Z,4.43
2023-03-04T13:45:54.725Z,7.30
2023-03-04T13:48:32.674Z,7.67
2023-03-04T13:51:00.884Z,7.83
2023-03-04T13:53:42.559Z,5.23
2023-03-04T13:56:27.198Z,5.27
2023-03-04T13:59:17.970Z,6.87
2023-03-04T14:01:52.643Z,6.40
2023-03-04T14:04:23.216Z,9.53
2023-03-04T14:06:51.507Z,3.87
2023-03-04T14:09:21.932Z,6.50
2023-03-04T14:11:50.172Z,8.13
2023-03-04T14:14:19.912Z,4.60
2023-03-04T14:16:50.253Z,3.53
2023-03-04T14:19:22.391Z,2.83
2023-03-04T14:21:50.440Z,4.57
2023-03-04T14:24:19.545Z,4.27
2023-03-04T14:26:47.769Z,2.30
2023-03-04T14:29:23.267Z,2.90
2023-03-04T14:31:51.694Z,5.63
2023-03-04T14:34:25.136Z,4.30
2023-03-04T14:36:53.238Z,2.60
2023-03-04T14:39:21.355Z,5.73
2023-03-04T14:41:49.433Z,3.67
2023-03-04T14:44:22.432Z,5.17
2023-03-04T14:47:06.612Z,7.93
2023-03-04T14:49:37.402Z,5.60
2023-03-04T14:52:05.511Z,7.80
2023-03-04T14:54:35.643Z,13.50
2023-03-04T14:57:26.738Z,11.73
2023-03-04T14:59:55.058Z,11.63
2023-03-04T15:02:31.118Z,22.33
2023-03-04T15:05:01.863Z,53.83
2023-03-04T15:07:34.979Z,5.13
2023-03-04T15:10:04.637Z,3.80
2023-03-04T15:12:33.856Z,4.67
2023-03-04T15:15:02.499Z,7.17
2023-03-04T15:17:37.752Z,4.37
2023-03-04T15:20:31.342Z,8.97
2023-03-04T15:23:01.443Z,4.53
2023-03-04T15:25:29.693Z,4.93
2023-03-04T15:27:57.958Z,2.83
2023-03-04T15:30:27.558Z,5.20
2023-03-04T15:32:56.191Z,3.00
2023-03-04T15:35:24.602Z,6.23
2023-03-04T15:37:54.955Z,3.03
2023-03-04T15:40:28.046Z,4.80
2023-03-04T15:42:56.515Z,4.27
2023-03-04T15:45:25.633Z,5.90
2023-03-04T15:47:53.687Z,4.23
2023-03-04T15:50:22.837Z,6.93
2023-03-04T15:52:51.245Z,4.20
2023-03-04T15:55:21.439Z,4.70
2023-03-04T15:57:51.263Z,4.97
2023-03-04T16:00:20.001Z,6.67
2023-03-04T16:02:48.777Z,6.00
2023-03-04T16:05:18.226Z,6.23
2023-03-04T16:07:46.545Z,4.77
2023-03-04T16:10:22.607Z,7.40
2023-03-04T16:12:51.043Z,5.37
2023-03-04T16:15:20.085Z,7.77
2023-03-04T16:17:48.476Z,6.33
2023-03-04T16:20:17.656Z,7.43
2023-03-04T16:22:45.736Z,4.87
2023-03-04T16:25:13.851Z,4.83
2023-03-04T16:27:43.307Z,3.93
2023-03-04T16:30:14.871Z,5.87
2023-03-04T16:32:43.257Z,5.60
2023-03-04T16:35:11.383Z,3.90
2023-03-04T16:37:39.502Z,7.13
2023-03-04T16:40:08.947Z,3.50
2023-03-04T16:42:37.058Z,8.13
2023-03-04T16:45:07.889Z,5.67
2023-03-04T16:47:36.117Z,3.20
2023-03-04T16:50:04.512Z,2.90
2023-03-04T16:52:33.181Z,3.53
2023-03-04T16:55:01.360Z,4.10
2023-03-04T16:57:31.596Z,4.20
2023-03-04T17:00:01.505Z,3.43
2023-03-04T17:02:31.111Z,5.27
2023-03-04T17:04:59.472Z,4.13
2023-03-04T17:07:27.595Z,3.73
2023-03-04T17:09:55.696Z,2.50
2023-03-04T17:12:23.781Z,5.23
2023-03-04T17:14:52.159Z,5.00
2023-03-04T17:17:20.227Z,7.10
2023-03-04T17:19:50.071Z,8.97
2023-03-04T17:22:18.129Z,6.23
2023-03-04T17:24:46.216Z,5.73
2023-03-04T17:27:14.573Z,6.33
2023-03-04T17:29:42.655Z,12.27
2023-03-04T17:32:10.817Z,6.10
2023-03-04T17:34:38.950Z,5.73
2023-03-04T17:37:08.418Z,4.90
2023-03-04T17:39:36.503Z,4.67
2023-03-04T17:42:05.596Z,8.57
2023-03-04T17:44:33.719Z,5.27
2023-03-04T17:47:01.763Z,6.53
2023-03-04T17:49:29.836Z,8.97
2023-03-04T17:51:57.891Z,5.90
2023-03-04T17:54:28.285Z,6.17
2023-03-04T17:56:56.349Z,3.50
2023-03-04T17:59:24.500Z,5.17
2023-03-04T18:01:54.288Z,7.37
2023-03-04T18:04:22.613Z,4.60
2023-03-04T18:06:50.700Z,4.23
2023-03-04T18:09:19.090Z,5.40
2023-03-04T18:11:48.506Z,4.50
2023-03-04T18:14:16.605Z,4.80
2023-03-04T18:16:44.708Z,5.60
2023-03-04T18:19:12.806Z,5.83
2023-03-04T18:21:41.184Z,5.77
2023-03-04T18:24:09.735Z,5.13
2023-03-04T18:26:37.819Z,4.70
2023-03-04T18:29:07.265Z,6.90
2023-03-04T18:31:36.809Z,7.97
2023-03-04T18:34:04.998Z,4.40
2023-03-04T18:36:33.585Z,7.00
2023-03-04T18:39:04.628Z,8.37
2023-03-04T18:41:32.669Z,6.77
2023-03-04T18:44:00.788Z,6.60
2023-03-04T18:46:32.752Z,7.17
2023-03-04T18:49:03.403Z,16.77
2023-03-04T18:51:31.619Z,6.60
2023-03-04T18:53:59.746Z,4.67
2023-03-04T18:56:31.569Z,6.47
2023-03-04T18:58:59.676Z,3.87
2023-03-04T19:01:28.076Z,6.63
2023-03-04T19:03:59.142Z,6.97
2023-03-04T19:06:27.300Z,5.10
2023-03-04T19:08:55.358Z,8.07
2023-03-04T19:11:24.787Z,7.77
2023-03-04T19:13:52.855Z,7.20
2023-03-04T19:16:21.294Z,4.60
2023-03-04T19:18:49.361Z,8.07
2023-03-04T19:21:19.468Z,5.43
2023-03-04T19:23:47.552Z,5.40
2023-03-04T19:26:15.628Z,5.47
2023-03-04T19:28:43.700Z,6.47
2023-03-04T19:31:12.269Z,6.60
2023-03-04T19:33:40.863Z,6.37
2023-03-04T19:36:10.156Z,5.37
2023-03-04T19:38:39.576Z,4.90
2023-03-04T19:41:11.276Z,6.67
2023-03-04T19:43:39.700Z,6.30
2023-03-04T19:46:08.800Z,5.17
2023-03-04T19:48:37.597Z,8.30
2023-03-04T19:51:05.954Z,4.90
2023-03-04T19:53:34.973Z,5.23
2023-03-04T19:56:04.950Z,6.40
2023-03-04T19:58:33.007Z,7.73
2023-03-04T20:01:01.078Z,6.73
2023-03-04T20:03:29.204Z,8.23
2023-03-04T20:06:03.709Z,9.77
2023-03-04T20:08:31.789Z,7.63
2023-03-04T20:11:00.199Z,6.00
2023-03-04T20:13:29.716Z,7.23
2023-03-04T20:15:57.844Z,8.53
2023-03-04T20:18:25.931Z,5.33
2023-03-04T20:20:57.249Z,9.93
2023-03-04T20:23:27.145Z,7.23
2023-03-04T20:25:57.022Z,6.07
2023-03-04T20:28:25.280Z,8.43
2023-03-04T20:30:54.760Z,6.17
2023-03-04T20:33:22.835Z,7.87
2023-03-04T20:35:51.060Z,6.10
2023-03-04T20:38:19.443Z,6.77
2023-03-04T20:40:47.465Z,6.43
2023-03-04T20:43:15.553Z,5.87
2023-03-04T20:45:43.662Z,6.03
2023-03-04T20:48:13.113Z,12.10
2023-03-04T20:50:41.634Z,7.97
2023-03-04T20:53:09.671Z,8.33
2023-03-04T20:55:37.740Z,7.17
2023-03-04T20:58:07.590Z,6.23
2023-03-04T21:00:38.433Z,9.33
2023-03-04T21:03:06.536Z,8.63
2023-03-04T21:05:36.011Z,7.70
2023-03-04T21:08:04.108Z,7.57
2023-03-04T21:10:32.169Z,7.80
2023-03-04T21:13:00.216Z,6.70
2023-03-04T21:15:28.289Z,8.50
2023-03-04T21:17:56.642Z,9.73
2023-03-04T21:20:24.811Z,8.83
2023-03-04T21:22:54.277Z,6.30
2023-03-04T21:25:23.493Z,6.60
2023-03-04T21:27:51.512Z,6.60
2023-03-04T21:30:19.977Z,6.87
2023-03-04T21:32:48.161Z,11.53
2023-03-04T21:35:16.317Z,13.57
2023-03-04T21:37:44.390Z,5.73
2023-03-04T21:40:14.657Z,7.17
2023-03-04T21:42:42.764Z,5.80
2023-03-04T21:45:11.981Z,9.10
2023-03-04T21:47:40.384Z,11.60
2023-03-04T21:50:09.323Z,7.47
2023-03-04T21:52:37.480Z,8.20
2023-03-04T21:55:06.148Z,8.13
2023-03-04T21:57:35.617Z,7.53
2023-03-04T22:00:05.484Z,7.90
2023-03-04T22:02:39.771Z,6.63
2023-03-04T22:05:08.277Z,8.73
2023-03-04T22:07:36.395Z,7.60
2023-03-04T22:10:06.693Z,9.33
2023-03-04T22:12:36.437Z,5.13
2023-03-04T22:15:04.751Z,5.90
2023-03-04T22:17:32.868Z,6.73
2023-03-04T22:20:02.615Z,5.67
2023-03-04T22:22:31.323Z,9.37
2023-03-04T22:25:00.500Z,6.37
2023-03-04T22:27:28.560Z,5.60
2023-03-04T22:29:58.403Z,7.90
2023-03-04T22:32:26.583Z,5.90
2023-03-04T22:34:54.660Z,8.30
2023-03-04T22:37:22.765Z,7.57
2023-03-04T22:39:51.104Z,7.27
2023-03-04T22:42:19.200Z,5.83
2023-03-04T22:44:47.296Z,10.93
2023-03-04T22:47:16.719Z,6.90
2023-03-04T22:49:47.485Z,7.67
2023-03-04T22:52:15.648Z,4.53
2023-03-04T22:54:44.022Z,5.13
2023-03-04T22:57:12.070Z,9.77
2023-03-04T22:59:40.118Z,7.27
2023-03-04T23:02:08.369Z,9.50
2023-03-04T23:04:37.813Z,9.03
2023-03-04T23:07:06.385Z,4.47
2023-03-04T23:09:34.465Z,13.17
2023-03-04T23:12:02.664Z,10.20
2023-03-04T23:14:30.737Z,12.37
2023-03-04T23:16:59.066Z,7.23
2023-03-04T23:19:27.173Z,8.30
2023-03-04T23:21:56.871Z,6.80
2023-03-04T23:24:26.682Z,6.10
2023-03-04T23:26:54.746Z,6.77
2023-03-04T23:29:23.059Z,9.07
2023-03-04T23:31:51.492Z,5.60
2023-03-04T23:34:19.850Z,6.27
2023-03-04T23:36:47.861Z,8.30
2023-03-04T23:39:17.304Z,5.57
2023-03-04T23:41:45.434Z,7.73
2023-03-04T23:44:13.808Z,7.00
2023-03-04T23:46:41.907Z,12.17
2023-03-04T23:49:10.520Z,8.17
2023-03-04T23:51:40.819Z,6.93
2023-03-04T23:54:08.928Z,8.27
2023-03-04T23:56:38.395Z,7.27
2023-03-04T23:59:07.708Z,7.97
